sensor_id;sensor_type;location;lat;lon;timestamp;pressure;altitude;pressure_sealevel;temperature;humidity
64853;BME280;56050;55.558;-4.644;2023-04-28T00:00:25;100905.41;;;12.77;58.63
64853;BME280;56050;55.558;-4.644;2023-04-28T00:02:51;100909.69;;;12.75;58.72
64853;BME280;56050;55.558;-4.644;2023-04-28T00:05:16;100906.19;;;12.74;58.61
64853;BME280;56050;55.558;-4.644;2023-04-28T00:07:42;100908.53;;;12.72;58.70
64853;BME280;56050;55.558;-4.644;2023-04-28T00:10:08;100906.63;;;12.69;58.79
64853;BME280;56050;55.558;-4.644;2023-04-28T00:12:34;100907.00;;;12.68;58.80
64853;BME280;56050;55.558;-4.644;2023-04-28T00:14:59;100903.94;;;12.66;58.93
64853;BME280;56050;55.558;-4.644;2023-04-28T00:17:25;100897.75;;;12.65;59.01
64853;BME280;56050;55.558;-4.644;2023-04-28T00:19:50;100903.16;;;12.65;59.06
64853;BME280;56050;55.558;-4.644;2023-04-28T00:22:17;100898.94;;;12.64;58.88
64853;BME280;56050;55.558;-4.644;2023-04-28T00:24:43;100902.38;;;12.65;59.07
64853;BME280;56050;55.558;-4.644;2023-04-28T00:27:08;100900.47;;;12.65;58.90
64853;BME280;56050;55.558;-4.644;2023-04-28T00:29:33;100900.84;;;12.67;59.08
64853;BME280;56050;55.558;-4.644;2023-04-28T00:31:59;100897.75;;;12.69;59.10
64853;BME280;56050;55.558;-4.644;2023-04-28T00:34:24;100894.63;;;12.70;58.93
64853;BME280;56050;55.558;-4.644;2023-04-28T00:36:50;100900.03;;;12.70;58.99
64853;BME280;56050;55.558;-4.644;2023-04-28T00:39:15;100899.66;;;12.68;58.79
64853;BME280;56050;55.558;-4.644;2023-04-28T00:41:42;100901.22;;;12.66;58.85
64853;BME280;56050;55.558;-4.644;2023-04-28T00:44:08;100902.03;;;12.63;58.84
64853;BME280;56050;55.558;-4.644;2023-04-28T00:46:34;100907.84;;;12.58;58.91
64853;BME280;56050;55.558;-4.644;2023-04-28T00:49:00;100897.47;;;12.53;59.08
64853;BME280;56050;55.558;-4.644;2023-04-28T00:51:25;100893.22;;;12.52;59.16
64853;BME280;56050;55.558;-4.644;2023-04-28T00:53:53;100894.75;;;12.49;59.16
64853;BME280;56050;55.558;-4.644;2023-04-28T00:56:19;100886.28;;;12.47;59.15
64853;BME280;56050;55.558;-4.644;2023-04-28T00:58:45;100889.00;;;12.44;59.20
64853;BME280;56050;55.558;-4.644;2023-04-28T01:01:10;100890.97;;;12.40;59.20
64853;BME280;56050;55.558;-4.644;2023-04-28T01:03:37;100880.94;;;12.36;59.23
64853;BME280;56050;55.558;-4.644;2023-04-28T01:06:04;100881.75;;;12.33;59.34
64853;BME280;56050;55.558;-4.644;2023-04-28T01:08:30;100881.75;;;12.30;59.30
64853;BME280;56050;55.558;-4.644;2023-04-28T01:10:56;100887.94;;;12.27;59.35
64853;BME280;56050;55.558;-4.644;2023-04-28T01:13:22;100879.47;;;12.25;59.28
64853;BME280;56050;55.558;-4.644;2023-04-28T01:15:47;100878.31;;;12.22;59.49
64853;BME280;56050;55.558;-4.644;2023-04-28T01:18:14;100873.69;;;12.19;59.53
64853;BME280;56050;55.558;-4.644;2023-04-28T01:20:40;100876.41;;;12.19;59.51
64853;BME280;56050;55.558;-4.644;2023-04-28T01:23:11;100881.41;;;12.21;59.53
64853;BME280;56050;55.558;-4.644;2023-04-28T01:25:37;100882.16;;;12.21;59.51
64853;BME280;56050;55.558;-4.644;2023-04-28T01:28:02;100877.53;;;12.18;59.44
64853;BME280;56050;55.558;-4.644;2023-04-28T01:30:28;100886.44;;;12.19;59.42
64853;BME280;56050;55.558;-4.644;2023-04-28T01:32:53;100882.56;;;12.20;59.52
64853;BME280;56050;55.558;-4.644;2023-04-28T01:35:18;100881.78;;;12.23;59.49
64853;BME280;56050;55.558;-4.644;2023-04-28T01:37:44;100879.47;;;12.25;59.45
64853;BME280;56050;55.558;-4.644;2023-04-28T01:40:10;100886.78;;;12.28;59.42
64853;BME280;56050;55.558;-4.644;2023-04-28T01:42:36;100890.63;;;12.30;59.42
64853;BME280;56050;55.558;-4.644;2023-04-28T01:45:01;100879.41;;;12.32;59.27
64853;BME280;56050;55.558;-4.644;2023-04-28T01:47:27;100890.63;;;12.34;59.40
64853;BME280;56050;55.558;-4.644;2023-04-28T01:49:53;100882.50;;;12.34;59.19
64853;BME280;56050;55.558;-4.644;2023-04-28T01:52:18;100875.97;;;12.31;59.27
64853;BME280;56050;55.558;-4.644;2023-04-28T01:54:46;100875.19;;;12.27;59.22
64853;BME280;56050;55.558;-4.644;2023-04-28T01:57:12;100877.13;;;12.23;59.32
64853;BME280;56050;55.558;-4.644;2023-04-28T01:59:37;100877.53;;;12.18;59.48
64853;BME280;56050;55.558;-4.644;2023-04-28T02:02:03;100870.22;;;12.15;59.50
64853;BME280;56050;55.558;-4.644;2023-04-28T02:04:28;100868.72;;;12.11;59.43
64853;BME280;56050;55.558;-4.644;2023-04-28T02:06:53;100869.50;;;12.08;59.42
64853;BME280;56050;55.558;-4.644;2023-04-28T02:09:19;100864.88;;;12.05;59.64
64853;BME280;56050;55.558;-4.644;2023-04-28T02:11:44;100871.06;;;12.02;59.68
64853;BME280;56050;55.558;-4.644;2023-04-28T02:14:10;100865.28;;;12.00;59.72
64853;BME280;56050;55.558;-4.644;2023-04-28T02:16:35;100869.53;;;12.01;59.82
64853;BME280;56050;55.558;-4.644;2023-04-28T02:19:00;100872.63;;;11.99;59.77
64853;BME280;56050;55.558;-4.644;2023-04-28T02:21:26;100869.13;;;11.99;59.68
64853;BME280;56050;55.558;-4.644;2023-04-28T02:23:52;100871.84;;;11.99;59.62
64853;BME280;56050;55.558;-4.644;2023-04-28T02:26:17;100871.09;;;11.98;59.62
64853;BME280;56050;55.558;-4.644;2023-04-28T02:28:43;100869.13;;;11.99;59.80
64853;BME280;56050;55.558;-4.644;2023-04-28T02:31:09;100871.47;;;12.00;59.67
64853;BME280;56050;55.558;-4.644;2023-04-28T02:33:36;100873.75;;;12.02;59.70
64853;BME280;56050;55.558;-4.644;2023-04-28T02:36:02;100872.25;;;12.01;59.67
64853;BME280;56050;55.558;-4.644;2023-04-28T02:38:28;100874.94;;;11.97;59.63
64853;BME280;56050;55.558;-4.644;2023-04-28T02:41:01;100876.50;;;11.91;59.70
64853;BME280;56050;55.558;-4.644;2023-04-28T02:43:29;100880.38;;;11.87;59.70
64853;BME280;56050;55.558;-4.644;2023-04-28T02:45:55;100881.16;;;11.84;59.93
64853;BME280;56050;55.558;-4.644;2023-04-28T02:48:21;100886.19;;;11.82;59.91
64853;BME280;56050;55.558;-4.644;2023-04-28T02:50:46;100876.94;;;11.79;59.74
64853;BME280;56050;55.558;-4.644;2023-04-28T02:53:12;100883.13;;;11.76;60.06
64853;BME280;56050;55.558;-4.644;2023-04-28T02:55:37;100884.66;;;11.73;60.00
64853;BME280;56050;55.558;-4.644;2023-04-28T02:58:03;100879.28;;;11.73;60.15
64853;BME280;56050;55.558;-4.644;2023-04-28T03:00:28;100887.38;;;11.73;60.00
64853;BME280;56050;55.558;-4.644;2023-04-28T03:02:54;100885.44;;;11.70;60.00
64853;BME280;56050;55.558;-4.644;2023-04-28T03:05:19;100887.34;;;11.66;60.03
64853;BME280;56050;55.558;-4.644;2023-04-28T03:07:45;100883.50;;;11.64;60.14
64853;BME280;56050;55.558;-4.644;2023-04-28T03:10:10;100889.66;;;11.68;60.26
64853;BME280;56050;55.558;-4.644;2023-04-28T03:12:36;100887.38;;;11.70;60.29
64853;BME280;56050;55.558;-4.644;2023-04-28T03:15:01;100888.13;;;11.74;60.10
64853;BME280;56050;55.558;-4.644;2023-04-28T03:17:27;100883.50;;;11.78;60.17
64853;BME280;56050;55.558;-4.644;2023-04-28T03:19:53;100892.72;;;11.81;60.06
64853;BME280;56050;55.558;-4.644;2023-04-28T03:22:18;100888.88;;;11.82;60.00
64853;BME280;56050;55.558;-4.644;2023-04-28T03:24:43;100892.72;;;11.84;59.92
64853;BME280;56050;55.558;-4.644;2023-04-28T03:27:09;100895.41;;;11.88;59.99
64853;BME280;56050;55.558;-4.644;2023-04-28T03:29:34;100893.47;;;11.88;59.98
64853;BME280;56050;55.558;-4.644;2023-04-28T03:32:00;100898.09;;;11.91;59.96
64853;BME280;56050;55.558;-4.644;2023-04-28T03:34:26;100896.19;;;11.92;59.83
64853;BME280;56050;55.558;-4.644;2023-04-28T03:36:51;100893.84;;;11.94;59.90
64853;BME280;56050;55.558;-4.644;2023-04-28T03:39:17;100890.00;;;11.95;59.81
64853;BME280;56050;55.558;-4.644;2023-04-28T03:41:42;100891.91;;;11.98;59.91
64853;BME280;56050;55.558;-4.644;2023-04-28T03:44:08;100896.53;;;12.01;59.96
64853;BME280;56050;55.558;-4.644;2023-04-28T03:46:33;100898.06;;;12.02;59.80
64853;BME280;56050;55.558;-4.644;2023-04-28T03:48:59;100900.38;;;12.03;59.65
64853;BME280;56050;55.558;-4.644;2023-04-28T03:51:27;100891.88;;;12.05;59.78
64853;BME280;56050;55.558;-4.644;2023-04-28T03:53:53;100900.34;;;12.07;59.81
64853;BME280;56050;55.558;-4.644;2023-04-28T03:56:19;100894.94;;;12.07;59.99
64853;BME280;56050;55.558;-4.644;2023-04-28T03:58:44;100899.97;;;12.05;59.86
64853;BME280;56050;55.558;-4.644;2023-04-28T04:01:10;100901.53;;;12.02;59.87
64853;BME280;56050;55.558;-4.644;2023-04-28T04:03:35;100898.47;;;12.00;59.80
64853;BME280;56050;55.558;-4.644;2023-04-28T04:06:01;100897.31;;;12.01;59.97
64853;BME280;56050;55.558;-4.644;2023-04-28T04:08:26;100898.84;;;12.02;59.86
64853;BME280;56050;55.558;-4.644;2023-04-28T04:10:52;100903.09;;;12.03;59.93
64853;BME280;56050;55.558;-4.644;2023-04-28T04:13:19;100907.72;;;12.03;60.05
64853;BME280;56050;55.558;-4.644;2023-04-28T04:15:45;100904.22;;;12.02;59.97
64853;BME280;56050;55.558;-4.644;2023-04-28T04:18:10;100900.38;;;12.03;60.10
64853;BME280;56050;55.558;-4.644;2023-04-28T04:20:35;100905.00;;;12.06;60.00
64853;BME280;56050;55.558;-4.644;2023-04-28T04:23:01;100901.53;;;12.06;60.04
64853;BME280;56050;55.558;-4.644;2023-04-28T04:25:28;100908.44;;;12.07;60.17
64853;BME280;56050;55.558;-4.644;2023-04-28T04:27:53;100901.91;;;12.08;60.18
64853;BME280;56050;55.558;-4.644;2023-04-28T04:30:19;100905.38;;;12.08;60.07
64853;BME280;56050;55.558;-4.644;2023-04-28T04:32:44;100911.16;;;12.07;60.12
64853;BME280;56050;55.558;-4.644;2023-04-28T04:35:10;100907.31;;;12.08;59.98
64853;BME280;56050;55.558;-4.644;2023-04-28T04:37:35;100910.41;;;12.06;60.11
64853;BME280;56050;55.558;-4.644;2023-04-28T04:40:01;100923.91;;;12.06;60.24
64853;BME280;56050;55.558;-4.644;2023-04-28T04:42:27;100910.41;;;12.06;60.11
64853;BME280;56050;55.558;-4.644;2023-04-28T04:44:53;100912.69;;;12.08;60.15
64853;BME280;56050;55.558;-4.644;2023-04-28T04:47:18;100912.69;;;12.08;60.14
64853;BME280;56050;55.558;-4.644;2023-04-28T04:49:44;100911.94;;;12.07;60.32
64853;BME280;56050;55.558;-4.644;2023-04-28T04:52:09;100915.03;;;12.06;60.35
64853;BME280;56050;55.558;-4.644;2023-04-28T04:54:35;100915.41;;;12.04;60.38
64853;BME280;56050;55.558;-4.644;2023-04-28T04:57:00;100913.88;;;12.03;60.31
64853;BME280;56050;55.558;-4.644;2023-04-28T04:59:26;100913.09;;;12.03;60.28
64853;BME280;56050;55.558;-4.644;2023-04-28T05:01:52;100922.34;;;12.02;60.34
64853;BME280;56050;55.558;-4.644;2023-04-28T05:04:17;100925.84;;;12.02;60.30
64853;BME280;56050;55.558;-4.644;2023-04-28T05:06:43;100935.09;;;12.05;60.56
64853;BME280;56050;55.558;-4.644;2023-04-28T05:09:08;100931.22;;;12.06;60.34
64853;BME280;56050;55.558;-4.644;2023-04-28T05:11:34;100936.63;;;12.09;60.50
64853;BME280;56050;55.558;-4.644;2023-04-28T05:13:59;100937.78;;;12.12;60.42
64853;BME280;56050;55.558;-4.644;2023-04-28T05:16:25;100938.16;;;12.14;60.46
64853;BME280;56050;55.558;-4.644;2023-04-28T05:18:52;100940.44;;;12.15;60.43
64853;BME280;56050;55.558;-4.644;2023-04-28T05:21:17;100944.69;;;12.16;60.37
64853;BME280;56050;55.558;-4.644;2023-04-28T05:23:43;100941.22;;;12.16;60.32
64853;BME280;56050;55.558;-4.644;2023-04-28T05:26:08;100947.41;;;12.16;60.51
64853;BME280;56050;55.558;-4.644;2023-04-28T05:28:34;100948.94;;;12.17;60.41
64853;BME280;56050;55.558;-4.644;2023-04-28T05:30:59;100948.53;;;12.19;60.34
64853;BME280;56050;55.558;-4.644;2023-04-28T05:33:24;100950.09;;;12.20;60.41
64853;BME280;56050;55.558;-4.644;2023-04-28T05:35:50;100956.25;;;12.24;60.55
64853;BME280;56050;55.558;-4.644;2023-04-28T05:38:16;100960.88;;;12.27;60.42
64853;BME280;56050;55.558;-4.644;2023-04-28T05:40:41;100955.09;;;12.28;60.46
64853;BME280;56050;55.558;-4.644;2023-04-28T05:43:06;100965.09;;;12.31;60.44
64853;BME280;56050;55.558;-4.644;2023-04-28T05:45:32;100967.41;;;12.33;60.36
64853;BME280;56050;55.558;-4.644;2023-04-28T05:47:57;100965.84;;;12.35;60.44
64853;BME280;56050;55.558;-4.644;2023-04-28T05:50:23;100974.31;;;12.37;60.44
64853;BME280;56050;55.558;-4.644;2023-04-28T05:52:48;100973.53;;;12.41;60.45
64853;BME280;56050;55.558;-4.644;2023-04-28T05:55:14;100975.88;;;12.42;60.38
64853;BME280;56050;55.558;-4.644;2023-04-28T05:57:39;100978.94;;;12.44;60.65
64853;BME280;56050;55.558;-4.644;2023-04-28T06:00:05;100979.31;;;12.46;60.46
64853;BME280;56050;55.558;-4.644;2023-04-28T06:02:31;100978.16;;;12.47;60.46
64853;BME280;56050;55.558;-4.644;2023-04-28T06:04:56;100977.00;;;12.48;60.54
64853;BME280;56050;55.558;-4.644;2023-04-28T06:07:22;100980.09;;;12.50;60.59
64853;BME280;56050;55.558;-4.644;2023-04-28T06:09:47;100980.44;;;12.52;60.49
64853;BME280;56050;55.558;-4.644;2023-04-28T06:12:13;100986.63;;;12.53;60.63
64853;BME280;56050;55.558;-4.644;2023-04-28T06:14:38;100988.56;;;12.56;60.54
64853;BME280;56050;55.558;-4.644;2023-04-28T06:17:04;100982.75;;;12.57;60.54
64853;BME280;56050;55.558;-4.644;2023-04-28T06:19:30;100986.59;;;12.60;60.47
64853;BME280;56050;55.558;-4.644;2023-04-28T06:21:56;100986.59;;;12.60;60.48
64853;BME280;56050;55.558;-4.644;2023-04-28T06:24:21;100989.69;;;12.62;60.43
64853;BME280;56050;55.558;-4.644;2023-04-28T06:26:46;100994.69;;;12.60;60.58
64853;BME280;56050;55.558;-4.644;2023-04-28T06:29:12;100990.06;;;12.60;60.52
64853;BME280;56050;55.558;-4.644;2023-04-28T06:31:37;100992.00;;;12.60;60.64
64853;BME280;56050;55.558;-4.644;2023-04-28T06:34:03;100993.13;;;12.62;60.75
64853;BME280;56050;55.558;-4.644;2023-04-28T06:36:28;100990.44;;;12.62;60.58
64853;BME280;56050;55.558;-4.644;2023-04-28T06:38:54;100997.41;;;12.63;60.62
64853;BME280;56050;55.558;-4.644;2023-04-28T06:41:20;100998.94;;;12.64;60.64
64853;BME280;56050;55.558;-4.644;2023-04-28T06:43:45;101000.09;;;12.67;60.67
64853;BME280;56050;55.558;-4.644;2023-04-28T06:46:11;101005.09;;;12.68;60.79
64853;BME280;56050;55.558;-4.644;2023-04-28T06:48:36;101015.13;;;12.71;60.77
64853;BME280;56050;55.558;-4.644;2023-04-28T06:51:02;101011.63;;;12.74;60.74
64853;BME280;56050;55.558;-4.644;2023-04-28T06:53:28;101018.97;;;12.77;60.81
64853;BME280;56050;55.558;-4.644;2023-04-28T06:55:53;101022.81;;;12.80;60.77
64853;BME280;56050;55.558;-4.644;2023-04-28T06:58:19;101027.06;;;12.81;60.82
64853;BME280;56050;55.558;-4.644;2023-04-28T07:00:45;101019.31;;;12.83;60.83
64853;BME280;56050;55.558;-4.644;2023-04-28T07:03:10;101023.56;;;12.84;60.82
64853;BME280;56050;55.558;-4.644;2023-04-28T07:05:36;101033.56;;;12.87;60.87
64853;BME280;56050;55.558;-4.644;2023-04-28T07:08:02;101028.94;;;12.87;60.77
64853;BME280;56050;55.558;-4.644;2023-04-28T07:10:27;101032.78;;;12.90;60.73
64853;BME280;56050;55.558;-4.644;2023-04-28T07:12:53;101035.50;;;12.93;60.83
64853;BME280;56050;55.558;-4.644;2023-04-28T07:15:18;101037.03;;;12.94;60.76
64853;BME280;56050;55.558;-4.644;2023-04-28T07:17:44;101040.53;;;12.95;60.98
64853;BME280;56050;55.558;-4.644;2023-04-28T07:20:09;101044.38;;;12.98;60.92
64853;BME280;56050;55.558;-4.644;2023-04-28T07:22:35;101047.44;;;13.00;60.79
64853;BME280;56050;55.558;-4.644;2023-04-28T07:25:01;101051.28;;;12.98;60.90
64853;BME280;56050;55.558;-4.644;2023-04-28T07:27:26;101053.22;;;12.98;60.86
64853;BME280;56050;55.558;-4.644;2023-04-28T07:29:51;101046.28;;;12.97;60.76
64853;BME280;56050;55.558;-4.644;2023-04-28T07:32:17;101044.38;;;12.94;61.03
64853;BME280;56050;55.558;-4.644;2023-04-28T07:34:42;101056.34;;;12.96;61.00
64853;BME280;56050;55.558;-4.644;2023-04-28T07:37:08;101057.47;;;12.99;61.09
64853;BME280;56050;55.558;-4.644;2023-04-28T07:39:33;101054.41;;;13.01;60.99
64853;BME280;56050;55.558;-4.644;2023-04-28T07:42:00;101061.69;;;13.04;60.94
64853;BME280;56050;55.558;-4.644;2023-04-28T07:44:27;101071.72;;;13.07;61.03
64853;BME280;56050;55.558;-4.644;2023-04-28T07:46:53;101071.75;;;13.10;60.93
64853;BME280;56050;55.558;-4.644;2023-04-28T07:49:18;101070.56;;;13.15;61.00
64853;BME280;56050;55.558;-4.644;2023-04-28T07:51:44;101082.16;;;13.19;60.91
64853;BME280;56050;55.558;-4.644;2023-04-28T07:54:09;101073.59;;;13.24;60.98
64853;BME280;56050;55.558;-4.644;2023-04-28T07:56:36;101072.81;;;13.30;60.97
64853;BME280;56050;55.558;-4.644;2023-04-28T07:59:01;101077.03;;;13.35;60.88
64853;BME280;56050;55.558;-4.644;2023-04-28T08:01:27;101086.28;;;13.41;60.96
64853;BME280;56050;55.558;-4.644;2023-04-28T08:03:52;101084.28;;;13.45;60.75
64853;BME280;56050;55.558;-4.644;2023-04-28T08:06:18;101086.22;;;13.48;60.83
64853;BME280;56050;55.558;-4.644;2023-04-28T08:08:43;101092.03;;;13.50;60.89
64853;BME280;56050;55.558;-4.644;2023-04-28T08:11:09;101094.31;;;13.51;60.79
64853;BME280;56050;55.558;-4.644;2023-04-28T08:13:35;101091.63;;;13.51;60.75
64853;BME280;56050;55.558;-4.644;2023-04-28T08:16:00;101096.25;;;13.51;60.80
64853;BME280;56050;55.558;-4.644;2023-04-28T08:18:26;101100.13;;;13.50;60.79
64853;BME280;56050;55.558;-4.644;2023-04-28T08:20:52;101105.16;;;13.51;60.79
64853;BME280;56050;55.558;-4.644;2023-04-28T08:23:18;101108.22;;;13.53;60.86
64853;BME280;56050;55.558;-4.644;2023-04-28T08:25:44;101108.19;;;13.57;60.81
64853;BME280;56050;55.558;-4.644;2023-04-28T08:28:11;101108.19;;;13.61;60.87
64853;BME280;56050;55.558;-4.644;2023-04-28T08:30:36;101106.63;;;13.63;60.87
64853;BME280;56050;55.558;-4.644;2023-04-28T08:33:03;101111.25;;;13.63;60.79
64853;BME280;56050;55.558;-4.644;2023-04-28T08:35:29;101115.91;;;13.62;61.00
64853;BME280;56050;55.558;-4.644;2023-04-28T08:37:54;101115.13;;;13.62;60.81
64853;BME280;56050;55.558;-4.644;2023-04-28T08:40:20;101117.09;;;13.61;61.09
64853;BME280;56050;55.558;-4.644;2023-04-28T08:42:46;101121.72;;;13.64;60.98
64853;BME280;56050;55.558;-4.644;2023-04-28T08:45:12;101123.59;;;13.67;61.02
64853;BME280;56050;55.558;-4.644;2023-04-28T08:47:39;101120.50;;;13.72;61.14
64853;BME280;56050;55.558;-4.644;2023-04-28T08:50:10;101128.22;;;13.74;60.91
64853;BME280;56050;55.558;-4.644;2023-04-28T08:52:38;101134.41;;;13.74;60.99
64853;BME280;56050;55.558;-4.644;2023-04-28T08:55:11;101125.88;;;13.76;61.23
64853;BME280;56050;55.558;-4.644;2023-04-28T08:57:49;101132.06;;;13.76;61.06
64853;BME280;56050;55.558;-4.644;2023-04-28T09:00:18;101134.00;;;13.76;60.99
64853;BME280;56050;55.558;-4.644;2023-04-28T09:02:44;101135.19;;;13.71;60.93
64853;BME280;56050;55.558;-4.644;2023-04-28T09:05:11;101132.13;;;13.69;60.96
64853;BME280;56050;55.558;-4.644;2023-04-28T09:07:37;101131.72;;;13.67;61.01
64853;BME280;56050;55.558;-4.644;2023-04-28T09:10:22;101143.38;;;13.61;61.23
64853;BME280;56050;55.558;-4.644;2023-04-28T09:12:51;101141.09;;;13.56;61.29
64853;BME280;56050;55.558;-4.644;2023-04-28T09:15:36;101145.38;;;13.53;61.52
64853;BME280;56050;55.558;-4.644;2023-04-28T09:18:03;101150.75;;;13.57;61.49
64853;BME280;56050;55.558;-4.644;2023-04-28T09:20:31;101150.72;;;13.60;61.20
64853;BME280;56050;55.558;-4.644;2023-04-28T09:23:15;101149.19;;;13.59;61.61
64853;BME280;56050;55.558;-4.644;2023-04-28T09:26:02;101152.66;;;13.60;61.43
64853;BME280;56050;55.558;-4.644;2023-04-28T09:28:27;101158.44;;;13.62;61.38
64853;BME280;56050;55.558;-4.644;2023-04-28T09:30:53;101168.53;;;13.58;61.51
64853;BME280;56050;55.558;-4.644;2023-04-28T09:33:19;101167.38;;;13.55;61.65
64853;BME280;56050;55.558;-4.644;2023-04-28T09:35:46;101171.66;;;13.52;61.58
64853;BME280;56050;55.558;-4.644;2023-04-28T09:38:12;101168.94;;;13.52;61.71
64853;BME280;56050;55.558;-4.644;2023-04-28T09:40:58;101176.66;;;13.54;61.84
64853;BME280;56050;55.558;-4.644;2023-04-28T09:43:32;101171.63;;;13.56;61.75
64853;BME280;56050;55.558;-4.644;2023-04-28T09:46:02;101180.88;;;13.62;61.71
64853;BME280;56050;55.558;-4.644;2023-04-28T09:48:32;101183.22;;;13.60;61.76
64853;BME280;56050;55.558;-4.644;2023-04-28T09:51:03;101193.28;;;13.56;61.75
64853;BME280;56050;55.558;-4.644;2023-04-28T09:53:29;101189.44;;;13.53;61.87
64853;BME280;56050;55.558;-4.644;2023-04-28T09:55:56;101193.28;;;13.56;61.93
64853;BME280;56050;55.558;-4.644;2023-04-28T09:58:23;101193.69;;;13.54;61.75
64853;BME280;56050;55.558;-4.644;2023-04-28T10:00:52;101202.59;;;13.51;61.97
64853;BME280;56050;55.558;-4.644;2023-04-28T10:03:20;101200.25;;;13.53;62.04
64853;BME280;56050;55.558;-4.644;2023-04-28T10:05:46;101197.94;;;13.56;61.99
64853;BME280;56050;55.558;-4.644;2023-04-28T10:08:12;101196.38;;;13.58;61.99
64853;BME280;56050;55.558;-4.644;2023-04-28T10:10:39;101209.50;;;13.60;61.88
64853;BME280;56050;55.558;-4.644;2023-04-28T10:13:06;101209.88;;;13.62;61.96
64853;BME280;56050;55.558;-4.644;2023-04-28T10:15:32;101207.56;;;13.64;61.85
64853;BME280;56050;55.558;-4.644;2023-04-28T10:17:59;101212.94;;;13.67;61.70
64853;BME280;56050;55.558;-4.644;2023-04-28T10:20:25;101212.94;;;13.67;61.81
64853;BME280;56050;55.558;-4.644;2023-04-28T10:25:41;101222.59;;;13.72;61.75
64853;BME280;56050;55.558;-4.644;2023-04-28T10:28:08;101226.84;;;13.73;61.82
64853;BME280;56050;55.558;-4.644;2023-04-28T10:30:33;101223.38;;;13.72;61.63
64853;BME280;56050;55.558;-4.644;2023-04-28T10:40:42;101240.84;;;13.64;62.01
64853;BME280;56050;55.558;-4.644;2023-04-28T10:43:09;101236.59;;;13.56;62.08
64853;BME280;56050;55.558;-4.644;2023-04-28T10:48:13;101233.56;;;13.47;62.23
64853;BME280;56050;55.558;-4.644;2023-04-28T10:56:23;101250.16;;;13.45;62.53
64853;BME280;56050;55.558;-4.644;2023-04-28T10:58:51;101253.28;;;13.47;62.45
64853;BME280;56050;55.558;-4.644;2023-04-28T11:06:47;101260.63;;;13.43;62.85
64853;BME280;56050;55.558;-4.644;2023-04-28T11:17:04;101269.16;;;13.35;63.05
64853;BME280;56050;55.558;-4.644;2023-04-28T11:22:02;101267.97;;;13.39;63.16
64853;BME280;56050;55.558;-4.644;2023-04-28T11:24:29;101269.91;;;13.42;63.13
64853;BME280;56050;55.558;-4.644;2023-04-28T11:26:58;101274.53;;;13.45;63.20
64853;BME280;56050;55.558;-4.644;2023-04-28T11:29:37;101262.94;;;13.45;63.32
64853;BME280;56050;55.558;-4.644;2023-04-28T11:32:11;101276.47;;;13.48;63.58
64853;BME280;56050;55.558;-4.644;2023-04-28T11:34:37;101273.75;;;13.48;63.48
64853;BME280;56050;55.558;-4.644;2023-04-28T11:37:02;101262.91;;;13.52;63.77
64853;BME280;56050;55.558;-4.644;2023-04-28T11:39:31;101266.75;;;13.58;63.64
64853;BME280;56050;55.558;-4.644;2023-04-28T11:42:02;101277.56;;;13.62;63.81
64853;BME280;56050;55.558;-4.644;2023-04-28T11:44:33;101281.03;;;13.62;63.74
64853;BME280;56050;55.558;-4.644;2023-04-28T11:47:00;101286.84;;;13.64;63.90
64853;BME280;56050;55.558;-4.644;2023-04-28T11:49:45;101286.03;;;13.67;64.02
64853;BME280;56050;55.558;-4.644;2023-04-28T11:52:11;101283.34;;;13.71;64.11
64853;BME280;56050;55.558;-4.644;2023-04-28T11:54:38;101292.59;;;13.73;63.94
64853;BME280;56050;55.558;-4.644;2023-04-28T11:57:04;101291.03;;;13.76;63.99
64853;BME280;56050;55.558;-4.644;2023-04-28T11:59:34;101299.53;;;13.81;64.20
64853;BME280;56050;55.558;-4.644;2023-04-28T12:02:04;101306.50;;;13.82;64.22
64853;BME280;56050;55.558;-4.644;2023-04-28T12:04:38;101304.16;;;13.88;64.08
64853;BME280;56050;55.558;-4.644;2023-04-28T12:09:31;101308.75;;;13.98;64.03
64853;BME280;56050;55.558;-4.644;2023-04-28T12:11:59;101313.00;;;13.95;64.03
64853;BME280;56050;55.558;-4.644;2023-04-28T12:14:26;101309.16;;;13.93;64.07
64853;BME280;56050;55.558;-4.644;2023-04-28T12:16:52;101311.88;;;13.93;64.17
64853;BME280;56050;55.558;-4.644;2023-04-28T12:19:17;101318.44;;;13.95;64.15
64853;BME280;56050;55.558;-4.644;2023-04-28T12:21:58;101318.81;;;13.97;64.31
64853;BME280;56050;55.558;-4.644;2023-04-28T12:24:25;101325.78;;;13.98;64.26
64853;BME280;56050;55.558;-4.644;2023-04-28T12:26:51;101319.63;;;13.94;64.35
64853;BME280;56050;55.558;-4.644;2023-04-28T12:32:06;101319.16;;;14.03;64.33
64853;BME280;56050;55.558;-4.644;2023-04-28T12:34:31;101320.69;;;14.11;64.19
64853;BME280;56050;55.558;-4.644;2023-04-28T12:36:59;101325.69;;;14.16;63.86
64853;BME280;56050;55.558;-4.644;2023-04-28T12:39:24;101325.28;;;14.21;63.99
64853;BME280;56050;55.558;-4.644;2023-04-28T12:41:51;101326.38;;;14.31;63.95
64853;BME280;56050;55.558;-4.644;2023-04-28T12:44:17;101323.66;;;14.38;63.84
64853;BME280;56050;55.558;-4.644;2023-04-28T12:46:43;101333.72;;;14.41;64.08
64853;BME280;56050;55.558;-4.644;2023-04-28T12:49:08;101327.16;;;14.38;63.75
64853;BME280;56050;55.558;-4.644;2023-04-28T12:51:34;101339.13;;;14.41;63.63
64853;BME280;56050;55.558;-4.644;2023-04-28T12:54:00;101338.28;;;14.47;63.69
64853;BME280;56050;55.558;-4.644;2023-04-28T12:56:25;101338.34;;;14.44;63.61
64853;BME280;56050;55.558;-4.644;2023-04-28T12:58:51;101339.16;;;14.37;63.77
64853;BME280;56050;55.558;-4.644;2023-04-28T13:01:17;101356.19;;;14.31;63.89
64853;BME280;56050;55.558;-4.644;2023-04-28T13:03:42;101347.72;;;14.22;63.99
64853;BME280;56050;55.558;-4.644;2023-04-28T13:06:08;101353.94;;;14.19;64.09
64853;BME280;56050;55.558;-4.644;2023-04-28T13:08:35;101359.00;;;14.17;63.87
64853;BME280;56050;55.558;-4.644;2023-04-28T13:11:01;101358.22;;;14.12;64.03
64853;BME280;56050;55.558;-4.644;2023-04-28T13:13:29;101368.69;;;14.10;64.12
64853;BME280;56050;55.558;-4.644;2023-04-28T13:15:55;101366.00;;;14.03;64.10